Time;durP1;ratioP1;P1;durP2;ratioP2;P2;SDS_P1;SDS_P2;PMS_P1;PMS_P2;Temp;Humidity;BMP_temperature;BMP_pressure;BME280_temperature;BME280_humidity;BME280_pressure;Samples;Min_cycle;Max_cycle;Signal;HPM_P1;HPM_P2
2023/03/08 00:01:51;;;;;;;34.97;18.23;;;1.20;99.90;;;-144.05;81.47;57056.97;5092764;28;20097;-76
2023/03/08 00:04:17;;;;;;;37.25;17.83;;;1.20;99.90;;;-144.05;81.84;57069.72;5092125;28;20062;-75
2023/03/08 00:06:43;;;;;;;39.10;20.30;;;1.20;99.90;;;-144.05;81.61;57069.72;5092310;28;20490;-76
2023/03/08 00:09:09;;;;;;;32.63;18.20;;;1.20;99.90;;;-144.05;81.61;57040.00;5094009;28;20064;-76
2023/03/08 00:11:35;;;;;;;38.28;19.45;;;1.20;99.90;;;-144.05;81.64;57059.09;5092293;28;20032;-74
2023/03/08 00:14:02;;;;;;;33.40;18.10;;;1.20;99.90;;;-144.05;81.43;57078.22;5089609;28;20028;-76
2023/03/08 00:16:28;;;;;;;31.10;17.25;;;1.10;99.90;;;-144.05;81.77;57061.22;5090916;28;20053;-76
2023/03/08 00:18:54;;;;;;;32.13;16.52;;;1.20;99.90;;;-144.05;81.68;57046.38;5090465;28;20033;-74
2023/03/08 00:21:20;;;;;;;30.05;16.92;;;1.10;99.90;;;-144.05;81.56;57076.09;5090753;28;20050;-76
2023/03/08 00:23:47;;;;;;;31.00;16.65;;;1.10;99.90;;;-144.05;81.75;57099.47;5090549;28;20226;-76
2023/03/08 00:26:13;;;;;;;31.83;16.75;;;1.10;99.90;;;-144.05;81.67;57065.47;5089367;28;20050;-74
2023/03/08 00:28:40;;;;;;;31.27;16.80;;;1.10;99.90;;;-144.05;81.82;57069.72;5090293;28;20506;-74
2023/03/08 00:31:12;;;;;;;32.17;16.98;;;1.10;99.90;;;-144.05;81.54;57056.97;5090521;28;20028;-74
2023/03/08 00:33:39;;;;;;;33.08;17.38;;;1.10;99.90;;;-144.05;81.48;57067.59;5090641;28;20043;-76
2023/03/08 00:36:14;;;;;;;27.52;16.08;;;1.10;99.90;;;-144.05;81.58;57065.47;5091590;28;20101;-74
2023/03/08 00:38:41;;;;;;;31.00;15.23;;;1.10;99.90;;;-144.05;81.22;57033.63;5075806;28;20028;-75
2023/03/08 00:41:07;;;;;;;30.48;15.25;;;1.00;99.90;;;-144.05;81.33;57067.59;5093992;28;20043;-74
2023/03/08 00:43:33;;;;;;;30.30;16.60;;;1.00;99.90;;;-144.05;81.36;57073.97;5094161;28;20108;-76
2023/03/08 00:45:59;;;;;;;31.77;15.98;;;1.00;99.90;;;-144.05;81.22;57088.84;5094016;28;20036;-74
2023/03/08 00:48:26;;;;;;;29.50;16.08;;;1.00;99.90;;;-144.05;80.66;57065.47;5093837;28;20085;-74
2023/03/08 00:50:52;;;;;;;32.10;17.70;;;1.00;99.90;;;-144.05;80.91;57059.09;5075779;28;20032;-74
2023/03/08 00:53:18;;;;;;;32.05;16.73;;;0.90;99.90;;;-144.05;81.29;57056.97;5100181;28;20106;-76
2023/03/08 00:55:51;;;;;;;34.95;16.95;;;1.00;99.90;;;-144.05;81.42;57040.00;5094220;28;20055;-74
2023/03/08 00:58:18;;;;;;;35.05;17.38;;;1.00;99.90;;;-144.05;81.14;57031.50;5093974;28;20028;-74
2023/03/08 01:00:44;;;;;;;33.50;16.90;;;1.00;99.90;;;-144.05;80.96;57054.88;5093810;28;20032;-75
2023/03/08 01:03:11;;;;;;;30.17;16.75;;;1.00;99.90;;;-144.05;80.85;57071.84;5093905;28;20023;-75
2023/03/08 01:05:43;;;;;;;31.35;17.23;;;1.00;99.90;;;-144.05;81.05;57067.59;5094216;28;20040;-75
2023/03/08 01:08:10;;;;;;;30.60;17.35;;;1.00;99.90;;;-144.05;81.19;57040.00;5093338;28;20020;-76
2023/03/08 01:10:36;;;;;;;29.38;15.63;;;1.00;99.90;;;-144.05;80.91;57027.25;5093651;28;20032;-75
2023/03/08 01:13:05;;;;;;;34.20;16.52;;;1.00;99.90;;;-144.05;81.01;57048.50;5093628;28;20031;-76
2023/03/08 01:15:37;;;;;;;34.10;16.60;;;1.00;99.90;;;-144.05;80.96;57076.09;5093578;28;20032;-75
2023/03/08 01:18:05;;;;;;;32.35;16.63;;;1.00;99.90;;;-144.05;80.84;57040.00;5074974;28;20032;-76
2023/03/08 01:20:32;;;;;;;36.08;16.15;;;1.00;99.90;;;-144.05;80.74;57048.50;5093408;28;20020;-75
2023/03/08 01:22:58;;;;;;;32.95;17.17;;;1.00;99.90;;;-144.05;80.80;57056.97;5093346;28;20049;-75
2023/03/08 01:25:25;;;;;;;29.25;16.52;;;1.00;99.90;;;-144.05;80.50;57048.50;5093334;28;20024;-75
2023/03/08 01:27:51;;;;;;;34.58;17.20;;;1.00;99.90;;;-144.05;80.71;57076.09;5093261;28;20028;-75
2023/03/08 01:30:17;;;;;;;35.75;17.33;;;1.00;99.90;;;-144.05;80.60;57056.97;5093161;28;20432;-76
2023/03/08 01:32:43;;;;;;;31.10;16.73;;;1.00;99.90;;;-144.05;80.59;57052.75;5093106;28;20055;-76
2023/03/08 01:35:09;;;;;;;32.97;16.60;;;1.10;99.90;;;-144.05;80.80;57052.75;5093020;28;20442;-75
2023/03/08 01:37:35;;;;;;;31.05;15.98;;;1.00;99.90;;;-144.05;80.77;57069.72;5092954;28;20032;-75
2023/03/08 01:40:04;;;;;;;34.78;16.75;;;1.00;99.90;;;-144.05;80.52;57056.97;5074766;28;20386;-75
2023/03/08 01:42:30;;;;;;;29.08;16.35;;;1.00;99.90;;;-144.05;80.46;57056.97;5093104;28;20032;-75
2023/03/08 01:45:02;;;;;;;32.13;16.35;;;1.00;99.90;;;-144.05;80.14;57073.97;5092906;28;20039;-75
2023/03/08 01:47:32;;;;;;;31.35;15.38;;;1.00;99.90;;;-144.05;80.49;57073.97;5073629;28;20531;-75
2023/03/08 01:50:12;;;;;;;28.88;16.33;;;1.00;99.90;;;-144.05;80.50;57040.00;5074234;28;20055;-76
2023/03/08 01:52:51;;;;;;;33.92;17.08;;;1.00;99.90;;;-144.05;80.74;57107.97;5091704;28;20039;-74
2023/03/08 01:55:18;;;;;;;31.75;16.70;;;1.00;99.90;;;-144.05;81.02;57059.09;5105921;28;20059;-74
2023/03/08 01:57:53;;;;;;;32.95;16.88;;;1.10;99.90;;;-144.05;80.40;57056.97;5101696;28;20024;-75
2023/03/08 02:00:24;;;;;;;32.60;15.18;;;1.10;99.90;;;-144.05;80.60;57033.63;5092942;28;20028;-74
2023/03/08 02:03:11;;;;;;;34.00;16.77;;;1.10;99.90;;;-144.05;79.79;57076.09;5092535;28;20023;-74
2023/03/08 02:05:42;;;;;;;34.05;17.00;;;1.10;99.90;;;-144.05;79.83;57069.72;5092502;28;20020;-74
2023/03/08 02:08:08;;;;;;;28.98;16.27;;;1.10;99.90;;;-144.05;79.80;57056.97;5092245;28;20032;-74
2023/03/08 02:10:37;;;;;;;32.95;16.35;;;1.10;99.90;;;-144.05;79.91;57046.38;5092321;28;20027;-74
2023/03/08 02:13:06;;;;;;;31.67;16.33;;;1.10;99.90;;;-144.05;79.84;57063.34;5092224;28;20051;-74
2023/03/08 02:15:33;;;;;;;31.33;16.80;;;1.10;99.90;;;-144.05;79.80;57061.22;5074073;28;20028;-74
2023/03/08 02:17:58;;;;;;;30.98;16.77;;;1.10;99.90;;;-144.05;80.05;57065.47;5091952;28;20032;-74
2023/03/08 02:20:34;;;;;;;33.35;16.90;;;1.10;99.90;;;-144.05;79.85;57067.59;5092211;28;20024;-74
2023/03/08 02:23:26;;;;;;;33.63;16.90;;;1.20;99.90;;;-144.05;79.90;57065.47;5092253;28;20056;-74
2023/03/08 02:26:03;;;;;;;32.90;16.90;;;1.20;99.90;;;-144.05;80.37;57044.25;5092075;28;20027;-75
2023/03/08 02:28:32;;;;;;;34.85;17.65;;;1.20;99.90;;;-144.05;80.19;57065.47;5091815;28;20432;-75
2023/03/08 02:30:58;;;;;;;32.67;17.20;;;1.20;99.90;;;-144.05;80.18;57078.22;5073601;28;20043;-75
2023/03/08 02:33:24;;;;;;;35.08;17.38;;;1.20;99.90;;;-144.05;80.28;57056.97;5090817;28;20024;-75
2023/03/08 02:35:51;;;;;;;32.40;16.40;;;1.20;99.90;;;-144.05;79.82;57054.88;5091837;28;20099;-75
2023/03/08 02:38:20;;;;;;;38.42;18.35;;;1.20;99.90;;;-144.05;80.23;57040.00;5091591;28;20028;-75
2023/03/08 02:40:47;;;;;;;33.85;16.58;;;1.20;99.90;;;-144.05;80.15;57069.72;5091825;28;20040;-75
2023/03/08 02:43:13;;;;;;;37.35;19.02;;;1.20;99.90;;;-144.05;80.19;57054.88;5091868;28;20077;-75
2023/03/08 02:45:39;;;;;;;37.78;19.15;;;1.20;99.90;;;-144.05;80.04;57063.34;5090471;28;20032;-75
2023/03/08 02:48:06;;;;;;;35.85;18.60;;;1.20;99.90;;;-144.05;80.03;57040.00;5073317;28;20393;-75
2023/03/08 02:50:32;;;;;;;33.92;18.20;;;1.20;99.90;;;-144.05;80.41;57050.63;5091663;28;20115;-75
2023/03/08 02:52:58;;;;;;;38.13;18.83;;;1.20;99.90;;;-144.05;80.43;57040.00;5073602;28;20483;-75
2023/03/08 02:55:24;;;;;;;31.63;17.75;;;1.30;99.90;;;-144.05;80.35;57048.50;5113577;22;20044;-75
2023/03/08 02:57:50;;;;;;;32.83;17.83;;;1.20;99.90;;;-144.05;80.75;57056.97;5091852;28;20056;-75
2023/03/08 03:00:17;;;;;;;35.10;18.50;;;1.30;99.90;;;-144.05;80.80;57033.63;5091595;28;20051;-74
2023/03/08 03:02:43;;;;;;;34.58;18.23;;;1.30;99.90;;;-144.05;81.02;57023.00;5091670;28;20038;-75
2023/03/08 03:05:10;;;;;;;37.70;18.85;;;1.20;99.90;;;-144.05;81.08;57050.63;5091620;28;20413;-74
2023/03/08 03:07:40;;;;;;;36.88;19.77;;;1.20;99.90;;;-144.05;80.98;57044.25;5091698;28;20028;-76
2023/03/08 03:10:10;;;;;;;38.13;19.67;;;1.20;99.90;;;-144.05;81.00;57042.13;5091574;28;20493;-75
2023/03/08 03:12:36;;;;;;;36.67;20.02;;;1.20;99.90;;;-144.05;81.43;57042.13;5091681;28;20028;-74
2023/03/08 03:15:06;;;;;;;34.67;19.13;;;1.20;99.90;;;-144.05;81.09;57052.75;5091817;28;20026;-76
2023/03/08 03:17:32;;;;;;;33.67;18.80;;;1.20;99.90;;;-144.05;80.77;57061.22;5091664;28;20387;-74
2023/03/08 03:19:58;;;;;;;38.83;18.48;;;1.20;99.90;;;-144.05;80.92;57052.75;5091109;28;20024;-75
2023/03/08 03:22:24;;;;;;;36.35;19.10;;;1.20;99.90;;;-144.05;81.13;57061.22;5091483;28;20062;-76
2023/03/08 03:24:51;;;;;;;31.42;18.13;;;1.20;99.90;;;-144.05;81.32;57078.22;5091457;28;20028;-74
2023/03/08 03:27:18;;;;;;;36.83;18.35;;;1.20;99.90;;;-144.05;81.02;57048.50;5091519;28;20024;-75
2023/03/08 03:29:44;;;;;;;33.65;19.08;;;1.20;99.90;;;-144.05;80.98;57073.97;5091125;28;20028;-74
2023/03/08 03:32:11;;;;;;;33.58;17.25;;;1.20;99.90;;;-144.05;81.19;57046.38;5091233;28;20028;-76
2023/03/08 03:34:37;;;;;;;34.58;16.83;;;1.20;99.90;;;-144.05;80.81;57044.25;5091247;28;20070;-76
2023/03/08 03:37:03;;;;;;;36.70;19.50;;;1.20;99.90;;;-144.05;80.92;57054.88;5073301;28;20055;-76
2023/03/08 03:39:32;;;;;;;36.58;17.80;;;1.20;99.90;;;-144.05;81.23;57042.13;5091122;28;20032;-75
2023/03/08 03:41:59;;;;;;;32.05;17.77;;;1.20;99.90;;;-144.05;81.16;57056.97;5091203;28;20466;-74
2023/03/08 03:44:29;;;;;;;33.08;18.33;;;1.20;99.90;;;-144.05;80.92;57073.97;5089930;28;20140;-75
2023/03/08 03:46:56;;;;;;;31.70;16.85;;;1.20;99.90;;;-144.05;80.68;57059.09;5076893;28;20026;-74
2023/03/08 03:49:22;;;;;;;35.20;16.45;;;1.20;99.90;;;-144.05;80.77;57069.72;5096614;28;20028;-74
2023/03/08 03:51:48;;;;;;;32.05;16.63;;;1.20;99.90;;;-144.05;81.02;57061.22;5093644;28;20099;-74
2023/03/08 03:54:14;;;;;;;32.90;18.80;;;1.20;99.90;;;-144.05;80.63;57063.34;5091166;28;20028;-75
2023/03/08 03:56:40;;;;;;;33.10;18.42;;;1.20;99.90;;;-144.05;80.67;57071.84;5091459;28;20028;-74
2023/03/08 03:59:06;;;;;;;32.42;17.50;;;1.20;99.90;;;-144.05;80.67;57052.75;5090934;28;20035;-76
2023/03/08 04:01:32;;;;;;;35.83;16.55;;;1.20;99.90;;;-144.05;80.92;57042.13;5091274;28;20070;-75
2023/03/08 04:03:59;;;;;;;31.02;16.70;;;1.20;99.90;;;-144.05;80.80;57073.97;5091215;28;20027;-75
2023/03/08 04:06:29;;;;;;;30.85;16.42;;;1.20;99.90;;;-144.05;80.86;57063.34;5091212;28;20047;-75
2023/03/08 04:09:04;;;;;;;29.92;15.13;;;1.20;99.90;;;-144.05;80.46;57046.38;5091003;28;20055;-75
2023/03/08 04:11:38;;;;;;;29.73;15.65;;;1.20;99.90;;;-144.05;80.60;57061.22;5092929;28;20363;-74
2023/03/08 04:14:05;;;;;;;29.95;15.95;;;1.20;99.90;;;-144.05;80.53;57054.88;5094997;28;20387;-75
2023/03/08 04:16:36;;;;;;;31.17;16.60;;;1.20;99.90;;;-144.05;80.52;57052.75;5094886;28;20023;-74
2023/03/08 04:19:09;;;;;;;29.40;16.95;;;1.20;99.90;;;-144.05;80.94;57059.09;5094744;28;20052;-74
2023/03/08 04:21:35;;;;;;;33.13;16.60;;;1.20;99.90;;;-144.05;81.07;57063.34;5095102;28;20035;-75
2023/03/08 04:24:01;;;;;;;38.35;17.65;;;1.20;99.90;;;-144.05;80.88;57095.22;5095000;28;20024;-74
2023/03/08 04:26:27;;;;;;;32.80;16.95;;;1.20;99.90;;;-144.05;81.00;57063.34;5095251;28;20035;-75
2023/03/08 04:28:53;;;;;;;34.47;17.05;;;1.20;99.90;;;-144.05;80.87;57082.47;5094595;28;20433;-75
2023/03/08 04:31:27;;;;;;;31.63;17.38;;;1.10;99.90;;;-144.05;80.94;57063.34;5093706;28;20053;-76
2023/03/08 04:33:54;;;;;;;36.25;17.00;;;1.10;99.90;;;-144.05;80.76;57069.72;5094771;28;20028;-73
2023/03/08 04:36:21;;;;;;;31.25;17.00;;;1.20;99.90;;;-144.05;81.02;57082.47;5093455;28;20024;-75
2023/03/08 04:38:50;;;;;;;33.63;17.63;;;1.20;99.90;;;-144.05;80.77;57071.84;5076001;28;20115;-75
2023/03/08 04:41:17;;;;;;;33.33;17.15;;;1.10;99.90;;;-144.05;80.88;57033.63;5094690;28;20053;-75
2023/03/08 04:43:54;;;;;;;32.72;16.15;;;1.10;99.90;;;-144.05;80.80;57061.22;5094741;28;20103;-76
2023/03/08 04:46:26;;;;;;;34.47;17.27;;;1.10;99.90;;;-144.05;80.67;57063.34;5094558;28;20032;-75
2023/03/08 04:48:54;;;;;;;33.72;17.48;;;1.20;99.90;;;-144.05;80.87;57050.63;5094182;28;20024;-75
2023/03/08 04:51:23;;;;;;;35.10;16.67;;;1.20;99.90;;;-144.05;80.34;57063.34;5075479;28;20439;-75
2023/03/08 04:53:49;;;;;;;35.47;18.70;;;1.20;99.90;;;-144.05;80.87;57056.97;5094178;28;20111;-76
2023/03/08 04:56:17;;;;;;;39.08;17.73;;;1.20;99.90;;;-144.05;80.94;57033.63;5093905;28;20546;-74
2023/03/08 04:58:43;;;;;;;36.10;18.55;;;1.20;99.90;;;-144.05;80.56;57063.34;5093731;28;20036;-76
2023/03/08 05:01:27;;;;;;;37.83;17.70;;;1.20;99.90;;;-144.05;81.05;57067.59;5093980;28;20047;-74
2023/03/08 05:03:54;;;;;;;33.28;16.17;;;1.20;99.90;;;-144.05;80.21;57065.47;5094089;28;20062;-75
2023/03/08 05:06:25;;;;;;;35.40;18.00;;;1.20;99.90;;;-144.05;80.54;57069.72;5093807;28;20031;-76
2023/03/08 05:08:53;;;;;;;39.75;17.73;;;1.20;99.90;;;-144.05;80.26;57061.22;5093693;28;20054;-74
2023/03/08 05:11:26;;;;;;;36.15;18.25;;;1.20;99.90;;;-144.05;80.46;57086.72;5093940;28;20032;-76
2023/03/08 05:13:58;;;;;;;32.20;16.42;;;1.20;99.90;;;-144.05;80.85;57061.22;5094533;28;20062;-74
2023/03/08 05:16:25;;;;;;;33.53;16.55;;;1.20;99.90;;;-144.05;80.22;57086.72;5094231;28;20071;-75
2023/03/08 05:18:52;;;;;;;32.10;16.63;;;1.20;99.90;;;-144.05;80.70;57076.09;5094281;28;20476;-75
2023/03/08 05:21:23;;;;;;;34.78;17.08;;;1.20;99.90;;;-144.05;80.71;57090.97;5094463;28;20028;-75
2023/03/08 05:23:49;;;;;;;34.35;16.48;;;1.20;99.90;;;-144.05;80.27;57069.72;5076397;28;20031;-74
2023/03/08 05:26:17;;;;;;;35.05;17.08;;;1.20;99.90;;;-144.05;80.38;57054.88;5094318;28;20384;-73
2023/03/08 05:28:44;;;;;;;31.73;16.38;;;1.20;99.90;;;-144.05;80.35;57050.63;5093991;28;20032;-74
2023/03/08 05:31:21;;;;;;;36.58;15.65;;;1.20;99.90;;;-144.05;80.42;57065.47;5076032;28;20027;-74
2023/03/08 05:33:51;;;;;;;30.67;15.77;;;1.20;99.90;;;-144.05;80.62;57052.75;5076024;28;20066;-75
2023/03/08 05:36:17;;;;;;;29.55;15.65;;;1.20;99.90;;;-144.05;80.28;57050.63;5094512;28;20024;-75
2023/03/08 05:38:44;;;;;;;33.15;16.38;;;1.10;99.90;;;-144.05;80.87;57069.72;5093774;28;20028;-75
2023/03/08 05:41:16;;;;;;;35.47;15.80;;;1.20;99.90;;;-144.05;81.22;57048.50;5093533;28;20028;-73
2023/03/08 05:43:42;;;;;;;30.65;14.23;;;1.10;99.90;;;-144.05;80.91;57054.88;5093567;28;20035;-74
2023/03/08 05:46:18;;;;;;;36.17;15.32;;;1.10;99.90;;;-144.05;81.15;57080.34;5093531;28;20032;-75
2023/03/08 05:48:44;;;;;;;;;;;1.10;99.90;;;-144.05;81.66;57069.72;5093913;28;20390;-74
2023/03/08 05:51:15;;;;;;;29.27;14.25;;;1.10;99.90;;;-144.05;81.84;57054.88;5093583;28;20011;-74
2023/03/08 05:53:41;;;;;;;31.98;13.82;;;1.10;99.90;;;-144.05;81.76;57069.72;5093377;28;20028;-75
2023/03/08 05:56:10;;;;;;;28.30;14.65;;;1.10;99.90;;;-144.05;81.75;57048.50;5093500;28;20080;-73
2023/03/08 05:58:36;;;;;;;29.70;14.73;;;1.10;99.90;;;-144.05;81.31;57042.13;5093692;28;20035;-74
2023/03/08 06:01:22;;;;;;;27.27;13.32;;;1.00;99.90;;;-144.05;81.71;57065.47;5093614;28;20039;-75
2023/03/08 06:03:57;;;;;;;30.30;13.50;;;1.00;99.90;;;-144.05;81.26;57052.75;5093676;28;20034;-73
2023/03/08 06:06:26;;;;;;;25.52;12.55;;;1.10;99.90;;;-144.05;81.84;57052.75;5094405;28;20788;-75
2023/03/08 06:08:54;;;;;;;21.45;11.30;;;1.00;99.90;;;-144.05;82.11;57059.09;5093659;28;20035;-74
2023/03/08 06:11:21;;;;;;;21.42;10.60;;;1.00;99.90;;;-144.05;81.97;57059.09;5093543;28;20028;-75
2023/03/08 06:13:47;;;;;;;22.60;10.30;;;0.90;99.90;;;-144.05;82.02;57073.97;5092007;28;20480;-76
2023/03/08 06:16:13;;;;;;;24.88;10.23;;;0.90;99.90;;;-144.05;81.62;57061.22;5093165;28;20032;-74
2023/03/08 06:18:42;;;;;;;19.60;9.18;;;0.90;99.90;;;-144.05;81.52;57059.09;5092719;28;20499;-76
2023/03/08 06:21:12;;;;;;;21.45;9.45;;;0.90;99.90;;;-144.05;81.08;57073.97;5093052;28;20040;-75
2023/03/08 06:23:38;;;;;;;22.58;10.82;;;0.80;99.90;;;-144.05;80.83;57071.84;5074980;28;20641;-74
2023/03/08 06:26:07;;;;;;;20.13;10.02;;;0.80;99.90;;;-144.05;81.74;57078.22;5093124;28;20569;-74
2023/03/08 06:28:34;;;;;;;21.20;9.82;;;0.80;99.90;;;-144.05;81.71;57080.34;5074721;28;20028;-74
2023/03/08 06:31:00;;;;;;;18.75;9.02;;;0.80;99.90;;;-144.05;81.91;57048.50;5092992;28;20089;-74
2023/03/08 06:33:31;;;;;;;16.98;8.27;;;0.80;99.90;;;-144.05;82.01;57071.84;5092542;28;20088;-74
2023/03/08 06:36:08;;;;;;;20.90;9.27;;;0.80;99.90;;;-144.05;81.12;57046.38;5093744;28;20063;-75
2023/03/08 06:38:38;;;;;;;21.10;8.23;;;0.80;99.90;;;-144.05;81.29;57078.22;5092817;28;20071;-74
2023/03/08 06:41:07;;;;;;;22.42;9.75;;;0.80;99.90;;;-144.05;81.57;57076.09;5093115;28;20069;-74
2023/03/08 06:43:34;;;;;;;22.08;10.32;;;0.80;99.90;;;-144.05;82.21;57052.75;5092948;28;20028;-75
2023/03/08 06:46:11;;;;;;;18.55;9.68;;;0.80;99.90;;;-144.05;82.22;57063.34;5074998;28;20060;-73
2023/03/08 06:48:39;;;;;;;20.52;9.25;;;0.80;99.90;;;-144.05;82.28;57071.84;5093120;28;20030;-76
2023/03/08 06:51:06;;;;;;;22.27;10.07;;;0.80;99.90;;;-144.05;82.12;57095.22;5094161;28;20047;-76
2023/03/08 06:53:37;;;;;;;22.42;10.43;;;0.80;99.90;;;-144.05;82.22;57050.63;5094490;28;20042;-75
2023/03/08 06:56:05;;;;;;;17.20;7.45;;;0.80;99.90;;;-144.05;83.06;57046.38;5092676;28;20032;-76
2023/03/08 06:58:34;;;;;;;19.98;8.18;;;0.80;99.90;;;-144.05;83.09;57054.88;5093104;28;20035;-75
2023/03/08 07:01:00;;;;;;;17.60;8.48;;;0.80;99.90;;;-144.05;82.79;57073.97;5091549;28;20039;-76
2023/03/08 07:03:26;;;;;;;18.13;7.30;;;0.70;99.90;;;-144.05;83.31;57052.75;5093689;28;20028;-75
2023/03/08 07:06:01;;;;;;;14.15;6.80;;;0.80;99.90;;;-144.05;82.82;57078.22;5092987;28;20039;-76
2023/03/08 07:08:28;;;;;;;10.52;5.53;;;0.70;99.90;;;-144.05;83.64;57088.84;5092814;28;20040;-75
2023/03/08 07:10:54;;;;;;;11.48;4.55;;;0.70;99.90;;;-144.05;82.91;57067.59;5092715;28;20035;-75
2023/03/08 07:13:22;;;;;;;7.97;4.03;;;0.60;99.90;;;-144.05;83.65;57052.75;5091110;28;20047;-73
2023/03/08 07:15:49;;;;;;;9.00;4.18;;;0.60;99.90;;;-144.05;82.77;57084.59;5092388;28;20032;-75
2023/03/08 07:18:15;;;;;;;7.63;3.22;;;0.50;99.90;;;-144.05;82.02;57097.34;5092114;28;20036;-75
2023/03/08 07:20:42;;;;;;;8.40;3.83;;;0.50;99.90;;;-144.05;82.29;57097.34;5074327;28;20038;-76
2023/03/08 07:23:08;;;;;;;9.60;3.92;;;0.50;99.90;;;-144.05;82.84;57069.72;5092265;28;20435;-75
2023/03/08 07:25:33;;;;;;;8.48;3.72;;;0.50;99.90;;;-144.05;82.35;57063.34;5092384;28;20241;-76
2023/03/08 07:27:59;;;;;;;8.73;4.55;;;0.50;99.90;;;-144.05;82.68;57042.13;5092025;28;20032;-74
2023/03/08 07:30:26;;;;;;;6.47;3.58;;;0.50;99.90;;;-144.05;82.71;57076.09;5092059;28;20031;-76
2023/03/08 07:32:53;;;;;;;8.63;4.75;;;0.50;99.90;;;-144.05;83.11;57088.84;5090753;28;20036;-75
2023/03/08 07:35:20;;;;;;;8.30;4.28;;;0.50;99.90;;;-144.05;82.97;57042.13;5091984;28;20020;-75
2023/03/08 07:37:47;;;;;;;7.15;3.67;;;0.50;99.90;;;-144.05;82.72;57069.72;5074312;28;20089;-76
2023/03/08 07:40:16;;;;;;;6.25;3.75;;;0.50;99.90;;;-144.05;83.13;57061.22;5091627;28;20056;-74
2023/03/08 07:42:43;;;;;;;7.20;3.33;;;0.50;99.90;;;-144.05;82.32;57067.59;5091859;28;20036;-75
2023/03/08 07:45:11;;;;;;;5.60;2.90;;;0.50;99.90;;;-144.05;82.54;57071.84;5092191;28;20169;-74
2023/03/08 07:47:39;;;;;;;5.35;2.60;;;0.50;99.90;;;-144.05;82.84;57082.47;5096192;28;20020;-76
2023/03/08 07:50:06;;;;;;;5.70;2.80;;;0.50;99.90;;;-144.05;82.27;57080.34;5096113;28;20380;-76
2023/03/08 07:52:32;;;;;;;6.75;2.92;;;0.50;99.90;;;-144.05;82.15;57076.09;5097289;28;20039;-76
2023/03/08 07:54:58;;;;;;;8.02;3.28;;;0.50;99.90;;;-144.05;82.78;57078.22;5101330;28;20035;-75
2023/03/08 07:57:24;;;;;;;4.40;2.80;;;0.50;99.90;;;-144.05;82.50;57078.22;5085251;28;20059;-75
2023/03/08 07:59:50;;;;;;;4.38;2.38;;;0.50;99.90;;;-144.05;81.77;57061.22;5104013;28;20095;-74
2023/03/08 08:02:16;;;;;;;4.53;2.90;;;0.60;99.90;;;-144.05;81.80;57078.22;5079051;28;20097;-75
2023/03/08 08:04:43;;;;;;;8.38;3.53;;;0.60;99.90;;;-144.05;82.11;57069.72;5096112;28;20032;-77
2023/03/08 08:07:15;;;;;;;5.45;2.85;;;0.60;99.90;;;-144.05;82.39;57044.25;5096107;28;20039;-75
2023/03/08 08:09:41;;;;;;;6.30;3.05;;;0.60;99.90;;;-144.05;82.17;57056.97;5096071;28;20082;-75
2023/03/08 08:12:08;;;;;;;8.75;2.47;;;0.60;99.90;;;-144.05;81.92;57088.84;5096353;28;20502;-73
2023/03/08 08:14:34;;;;;;;3.78;2.10;;;0.70;99.90;;;-144.05;81.77;57071.84;5078375;28;20119;-76
2023/03/08 08:17:00;;;;;;;6.53;2.20;;;0.60;99.90;;;-144.05;81.56;57082.47;5096764;28;20417;-73
2023/03/08 08:19:26;;;;;;;4.93;2.40;;;0.60;99.90;;;-144.05;81.27;57095.22;5095685;28;20038;-73
2023/03/08 08:21:51;;;;;;;3.92;1.80;;;0.60;99.90;;;-144.05;81.41;57059.09;5095936;28;20056;-74
2023/03/08 08:24:17;;;;;;;4.63;2.22;;;0.60;99.90;;;-144.05;81.04;57082.47;5077562;28;20284;-74
2023/03/08 08:26:43;;;;;;;5.00;2.67;;;0.60;99.90;;;-144.05;81.38;57080.34;5095940;28;20024;-76
2023/03/08 08:29:09;;;;;;;3.28;2.05;;;0.60;99.90;;;-144.05;81.27;57071.84;5095521;28;20035;-75
2023/03/08 08:31:35;;;;;;;6.68;2.42;;;0.70;99.90;;;-144.05;80.83;57040.00;5095622;28;20479;-75
2023/03/08 08:34:01;;;;;;;4.15;1.95;;;0.60;99.90;;;-144.05;80.92;57061.22;5095645;28;20034;-74
2023/03/08 08:36:27;;;;;;;7.75;2.88;;;0.70;99.90;;;-144.05;80.53;57065.47;5095031;28;20103;-76
2023/03/08 08:38:54;;;;;;;6.32;3.00;;;0.70;99.90;;;-144.05;80.92;57095.22;5076645;28;20123;-74
2023/03/08 08:41:23;;;;;;;5.30;2.38;;;0.70;99.90;;;-144.05;80.83;57067.59;5077065;28;20032;-76
2023/03/08 08:43:49;;;;;;;3.83;2.15;;;0.60;99.90;;;-144.05;80.67;57078.22;5094128;28;20490;-74
2023/03/08 08:46:17;;;;;;;4.82;2.35;;;0.60;99.90;;;-144.05;80.42;57033.63;5095194;28;20066;-75
2023/03/08 08:48:43;;;;;;;4.88;2.15;;;0.60;99.90;;;-144.05;80.30;57099.47;5095148;28;20043;-75
2023/03/08 08:51:12;;;;;;;6.72;2.15;;;0.70;99.90;;;-144.05;80.74;57078.22;5095935;28;20089;-74
2023/03/08 08:53:39;;;;;;;4.85;1.80;;;0.70;99.90;;;-144.05;80.89;57078.22;5095764;28;20032;-76
2023/03/08 08:56:22;;;;;;;3.38;1.85;;;0.70;99.90;;;-144.05;81.33;57093.09;5126774;22;20310;-77
2023/03/08 08:58:48;;;;;;;4.13;1.95;;;0.60;99.90;;;-144.05;81.10;57078.22;5100750;28;20149;-79
2023/03/08 09:01:21;;;;;;;3.03;1.80;;;0.60;99.90;;;-144.05;80.87;57061.22;5080535;28;20031;-77
2023/03/08 09:03:48;;;;;;;3.40;1.95;;;0.70;99.90;;;-144.05;80.89;57067.59;5100205;28;20110;-76
2023/03/08 09:06:18;;;;;;;3.70;1.55;;;0.60;99.90;;;-144.05;81.49;57071.84;5098216;28;20024;-76
2023/03/08 09:08:53;;;;;;;5.40;1.80;;;0.60;99.90;;;-144.05;81.46;57054.88;5097679;28;20479;-77
2023/03/08 09:11:20;;;;;;;2.47;1.15;;;0.70;99.90;;;-144.05;81.27;57076.09;5099811;28;20028;-77
2023/03/08 09:13:47;;;;;;;3.72;2.03;;;0.70;99.90;;;-144.05;81.60;57073.97;5098109;28;20486;-76
2023/03/08 09:16:30;;;;;;;3.33;1.90;;;0.70;99.90;;;-144.05;81.92;57080.34;5099116;28;20097;-77
2023/03/08 09:18:59;;;;;;;3.00;2.13;;;0.70;99.90;;;-144.05;81.87;57080.34;5098373;28;20043;-77
2023/03/08 09:21:27;;;;;;;4.28;1.95;;;0.70;99.90;;;-144.05;81.24;57067.59;5099027;28;20020;-76
2023/03/08 09:23:55;;;;;;;6.40;2.38;;;0.80;99.90;;;-144.05;80.71;57069.72;5099930;28;20050;-77
2023/03/08 09:26:21;;;;;;;5.25;2.55;;;0.90;99.90;;;-144.05;80.64;57056.97;5098744;28;20040;-77
2023/03/08 09:28:47;;;;;;;2.30;1.85;;;0.90;99.90;;;-144.05;82.06;57080.34;5099282;28;20035;-77
2023/03/08 09:31:17;;;;;;;5.93;2.85;;;0.80;99.90;;;-144.05;81.43;57052.75;5099782;28;20036;-77
2023/03/08 09:33:52;;;;;;;4.90;3.15;;;0.80;99.90;;;-144.05;82.02;57054.88;5098742;28;20020;-76
2023/03/08 09:36:19;;;;;;;3.40;2.20;;;0.80;99.90;;;-144.05;81.99;57086.72;5097781;28;20027;-76
2023/03/08 09:38:51;;;;;;;2.85;2.20;;;0.70;99.90;;;-144.05;81.32;57052.75;5097761;28;20103;-77
2023/03/08 09:41:50;;;;;;;3.88;2.17;;;0.70;99.90;;;-144.05;82.24;57076.09;5078987;28;20097;-77
2023/03/08 09:44:57;;;;;;;4.72;2.50;;;0.70;99.90;;;-144.05;82.61;57042.13;5096030;28;20039;-76
2023/03/08 09:47:40;;;;;;;6.47;2.53;;;0.70;99.90;;;-144.05;81.40;57065.47;5096653;28;20020;-76
2023/03/08 09:50:11;;;;;;;4.03;1.98;;;0.90;99.90;;;-144.05;80.95;57086.72;5096264;28;20087;-76
2023/03/08 09:53:19;;;;;;;2.40;1.88;;;1.00;99.90;;;-144.05;81.14;57059.09;5097052;28;20043;-77
2023/03/08 09:56:02;;;;;;;3.75;2.53;;;1.00;99.90;;;-144.05;80.16;57071.84;5096766;28;20043;-76
2023/03/08 09:58:50;;;;;;;4.20;2.63;;;1.00;99.90;;;-144.05;79.69;57090.97;5097945;28;20092;-77
2023/03/08 10:01:36;;;;;;;5.32;2.50;;;1.10;99.90;;;-144.05;79.28;57056.97;5098214;28;20095;-77
2023/03/08 10:04:34;;;;;;;;;;;1.10;99.90;;;-144.05;80.22;57035.75;5097130;28;20396;-77
2023/03/08 10:07:52;;;;;;;3.40;2.15;;;1.10;99.90;;;-144.05;80.18;57086.72;5096813;28;19908;-77
2023/03/08 10:10:33;;;;;;;;;;;1.10;99.90;;;-144.05;79.84;57056.97;5096819;28;20131;-76
2023/03/08 10:13:30;;;;;;;7.63;2.35;;;1.10;99.90;;;-144.05;79.75;57088.84;5078453;28;19908;-77
2023/03/08 10:16:24;;;;;;;3.85;2.75;;;1.20;99.90;;;-144.05;80.70;57065.47;5098198;28;20086;-77